Time;durP1;ratioP1;P1;durP2;ratioP2;P2;SDS_P1;SDS_P2;PMS_P1;PMS_P2;Temp;Humidity;BMP_temperature;BMP_pressure;BME280_temperature;BME280_humidity;BME280_pressure;Samples;Min_cycle;Max_cycle;Signal;HPM_P1;HPM_P2
2023/05/24 00:00:24;;;;;;;;;18.40;16.80;;;;;21.31;75.10;98400.78;7755835;22;98401;-60
2023/05/24 00:03:29;;;;;;;;;21.00;20.00;;;;;21.26;73.83;98392.66;7755779;22;96550;-60
2023/05/24 00:06:33;;;;;;;;;17.80;16.00;;;;;21.30;74.41;98396.44;7783896;22;96197;-60
2023/05/24 00:09:38;;;;;;;;;17.00;15.00;;;;;21.33;74.20;98400.50;7784452;22;96049;-59
2023/05/24 00:12:41;;;;;;;;;16.00;15.00;;;;;21.34;74.05;98394.72;7784283;22;96388;-60
2023/05/24 00:15:45;;;;;;;;;14.25;13.25;;;;;21.31;73.44;98400.78;7783327;22;96155;-60
2023/05/24 00:18:48;;;;;;;;;15.50;14.50;;;;;21.27;73.91;98396.22;7783146;22;96226;-60
2023/05/24 00:21:52;;;;;;;;;18.40;15.40;;;;;21.34;73.15;98396.63;7782276;22;96330;-60
2023/05/24 00:24:56;;;;;;;;;14.60;13.00;;;;;21.35;72.79;98401.00;7783053;22;96413;-60
2023/05/24 00:28:00;;;;;;;;;15.20;14.20;;;;;21.34;73.44;98397.47;7783951;22;96234;-59
2023/05/24 00:31:03;;;;;;;;;19.25;17.25;;;;;21.32;72.93;98399.69;7783248;22;96325;-60
2023/05/24 00:34:07;;;;;;;;;17.50;16.00;;;;;21.31;72.87;98392.56;7782940;22;96241;-59
2023/05/24 00:37:11;;;;;;;;;15.00;13.60;;;;;21.33;72.43;98389.53;7729884;22;98260;-60
2023/05/24 00:40:16;;;;;;;;;18.60;16.00;;;;;21.32;72.61;98390.63;7782712;22;96369;-60
2023/05/24 00:43:19;;;;;;;;;15.00;14.60;;;;;21.29;72.32;98388.50;7756027;22;96325;-60
2023/05/24 00:46:28;;;;;;;;;17.00;16.00;;;;;21.08;73.41;98382.56;7782584;22;96205;-60
2023/05/24 00:49:32;;;;;;;;;18.00;16.00;;;;;21.16;72.80;98385.44;7756141;22;96312;-59
2023/05/24 00:52:36;;;;;;;;;15.00;15.00;;;;;21.20;73.22;98390.34;7757374;22;96434;-59
2023/05/24 00:55:40;;;;;;;;;17.75;17.25;;;;;21.20;72.85;98390.34;7755278;22;96558;-60
2023/05/24 00:58:44;;;;;;;;;18.00;16.40;;;;;21.18;73.64;98393.38;7782554;22;96100;-59
2023/05/24 01:01:48;;;;;;;;;17.00;16.20;;;;;21.23;73.63;98395.19;7754555;22;96328;-60
2023/05/24 01:04:51;;;;;;;;;18.00;15.20;;;;;21.13;73.47;98399.75;7728907;22;96228;-59
2023/05/24 01:08:04;;;;;;;;;16.00;15.00;;;;;21.12;74.20;98400.03;7782376;22;97048;-60
2023/05/24 01:11:17;;;;;;;;;13.80;12.20;;;;;21.13;73.87;98397.03;7783361;22;96298;-60
2023/05/24 01:14:29;;;;;;;;;18.00;17.00;;;;;21.12;74.79;98400.03;7754495;22;96283;-60
2023/05/24 01:17:38;;;;;;;;;14.00;12.00;;;;;21.08;74.52;98390.78;7754589;22;96547;-60
2023/05/24 01:20:43;;;;;;;;;14.80;13.80;;;;;21.11;74.16;98395.69;7754430;22;96268;-60
2023/05/24 01:24:01;;;;;;;;;12.75;12.25;;;;;21.11;74.76;98399.19;7756747;22;96916;-60
2023/05/24 01:27:09;;;;;;;;;17.00;16.00;;;;;21.10;74.28;98403.09;7757487;22;96269;-60
2023/05/24 01:30:14;;;;;;;;;16.00;14.00;;;;;21.10;74.95;98411.31;7784265;22;96635;-60
2023/05/24 01:33:17;;;;;;;;;17.00;16.60;;;;;21.10;74.64;98407.75;7756085;22;96320;-59
2023/05/24 01:36:21;;;;;;;;;13.50;13.50;;;;;21.10;74.52;98408.56;7755096;22;96192;-60
2023/05/24 01:39:27;;;;;;;;;17.00;15.00;;;;;21.17;74.10;98421.88;7729404;22;98412;-60
2023/05/24 01:42:40;;;;;;;;;14.25;13.50;;;;;21.17;74.75;98413.66;7757097;22;96772;-60
2023/05/24 01:45:53;;;;;;;;;15.00;14.00;;;;;21.22;73.94;98418.25;7758187;22;96185;-60
2023/05/24 01:49:03;;;;;;;;;17.25;17.00;;;;;21.23;73.86;98409.72;7759440;22;96153;-60
2023/05/24 01:52:12;;;;;;;;;17.00;17.00;;;;;21.22;74.57;98415.50;7785095;22;96158;-60
2023/05/24 01:55:17;;;;;;;;;15.00;14.80;;;;;21.20;74.80;98410.34;7783589;22;96568;-60
2023/05/24 01:58:25;;;;;;;;;17.00;15.20;;;;;21.20;74.85;98409.53;7784583;22;96686;-60
2023/05/24 02:01:28;;;;;;;;;20.00;18.00;;;;;21.21;74.53;98417.41;7756547;22;96999;-59
2023/05/24 02:04:32;;;;;;;;;20.00;17.80;;;;;21.12;75.65;98408.25;7782741;22;96982;-60
2023/05/24 02:07:35;;;;;;;;;15.00;13.50;;;;;21.12;75.72;98402.75;7756498;22;96193;-59
2023/05/24 02:10:39;;;;;;;;;11.50;11.00;;;;;21.04;76.55;98408.94;7784482;22;96795;-60
2023/05/24 02:13:44;;;;;;;;;15.60;15.60;;;;;21.02;76.49;98403.75;7783908;22;96184;-59
2023/05/24 02:16:49;;;;;;;;;16.40;15.00;;;;;20.99;76.75;98400.81;7783448;22;96226;-60
2023/05/24 02:19:54;;;;;;;;;18.00;17.00;;;;;20.99;77.28;98409.84;7756562;22;96189;-60
2023/05/24 02:22:58;;;;;;;;;15.20;13.60;;;;;20.98;77.83;98407.41;7783805;22;96189;-60
2023/05/24 02:26:02;;;;;;;;;16.40;15.00;;;;;;;;7783692;22;96134;-60
2023/05/24 02:29:06;;;;;;;;;16.40;16.00;;;;;20.95;77.92;98411.56;7756909;22;96238;-60
2023/05/24 02:32:10;;;;;;;;;21.00;18.00;;;;;20.97;77.85;98408.50;7754827;22;96399;-60
2023/05/24 02:35:13;;;;;;;;;18.00;17.00;;;;;20.99;77.96;98417.25;7784254;22;96225;-59
2023/05/24 02:38:16;;;;;;;;;16.00;15.00;;;;;20.94;78.68;98409.13;7756984;22;98100;-59
2023/05/24 02:41:20;;;;;;;;;15.00;14.00;;;;;20.85;79.53;98403.53;7782873;22;96224;-60
2023/05/24 02:44:25;;;;;;;;;17.00;15.00;;;;;20.93;79.15;98408.31;7784598;22;96833;-60
2023/05/24 02:47:29;;;;;;;;;20.20;17.20;;;;;20.94;79.57;98407.19;7754685;22;96396;-60
2023/05/24 02:50:33;;;;;;;;;18.50;17.00;;;;;20.95;79.22;98408.03;7783657;22;96018;-60
2023/05/24 02:53:37;;;;;;;;;19.80;18.80;;;;;20.96;79.47;98412.38;7783057;22;96700;-60
2023/05/24 02:56:40;;;;;;;;;19.40;17.00;;;;;20.93;80.01;98421.19;7782702;22;96373;-60
2023/05/24 02:59:45;;;;;;;;;16.50;16.00;;;;;20.92;80.14;98416.81;7783610;22;96457;-59
2023/05/24 03:02:49;;;;;;;;;19.40;17.40;;;;;20.90;80.80;98419.06;7727886;22;98317;-60
2023/05/24 03:05:53;;;;;;;;;19.60;18.20;;;;;20.75;81.17;98404.50;7757180;22;96229;-60
2023/05/24 03:08:57;;;;;;;;;19.50;17.50;;;;;20.91;80.73;98421.50;7785440;22;96193;-59
2023/05/24 03:12:01;;;;;;;;;20.00;18.00;;;;;20.94;81.18;98420.91;7763347;22;96263;-57
2023/05/24 03:15:10;;;;;;;;;19.40;18.00;;;;;20.95;81.17;98419.78;7763418;22;96293;-57
2023/05/24 03:18:14;;;;;;;;;18.00;16.40;;;;;21.03;80.61;98423.75;7788615;22;96854;-57
2023/05/24 03:21:19;;;;;;;;;20.40;18.60;;;;;21.05;80.90;98419.63;7733300;22;98453;-57
2023/05/24 03:24:24;;;;;;;;;21.20;19.20;;;;;21.06;81.08;98418.47;7760012;22;96366;-57
2023/05/24 03:27:28;;;;;;;;;20.20;19.20;;;;;21.05;80.62;98429.78;7760915;22;96180;-57
2023/05/24 03:30:33;;;;;;;;;18.20;17.00;;;;;20.99;81.07;98428.22;7788057;22;96703;-57
2023/05/24 03:33:37;;;;;;;;;22.80;20.00;;;;;21.05;81.48;98432.50;7734082;22;96711;-57
2023/05/24 03:36:40;;;;;;;;;24.80;22.40;;;;;21.03;81.07;98443.75;7760528;22;96219;-57
2023/05/24 03:39:44;;;;;;;;;25.40;22.40;;;;;21.03;81.72;98431.97;7735782;22;98500;-57
2023/05/24 03:43:06;;;;;;;;;22.00;19.60;;;;;21.03;81.63;98446.50;7762925;22;96676;-57
2023/05/24 03:46:24;;;;;;;;;25.00;22.00;;;;;21.04;81.52;98439.09;7760360;22;96190;-57
2023/05/24 03:49:28;;;;;;;;;23.00;21.00;;;;;21.03;82.06;98446.50;7762465;22;96356;-57
2023/05/24 03:52:31;;;;;;;;;23.20;20.00;;;;;21.07;81.82;98449.44;7760352;22;96214;-58
2023/05/24 03:55:35;;;;;;;;;26.25;23.00;;;;;21.02;82.12;98455.84;7788871;22;96210;-57
2023/05/24 03:58:38;;;;;;;;;26.80;25.60;;;;;21.06;81.76;98456.06;7762066;22;96919;-57
2023/05/24 04:01:43;;;;;;;;;25.00;23.00;;;;;21.04;81.86;98464.56;7761189;22;97452;-57
2023/05/24 04:04:47;;;;;;;;;27.80;25.00;;;;;21.06;82.01;98467.03;7763746;22;96252;-57
2023/05/24 04:07:50;;;;;;;;;25.60;24.60;;;;;21.06;82.28;98464.28;7763499;22;96148;-57
2023/05/24 04:10:54;;;;;;;;;25.75;23.75;;;;;21.14;81.47;98461.69;7760915;22;96779;-57
2023/05/24 04:13:59;;;;;;;;;28.00;26.00;;;;;21.17;80.94;98469.31;7789896;22;96549;-58
2023/05/24 04:17:06;;;;;;;;;29.40;27.00;;;;;21.19;80.82;98485.47;7768822;22;96251;-59
2023/05/24 04:20:11;;;;;;;;;32.75;26.25;;;;;21.10;81.77;98482.56;7777502;22;96274;-60
2023/05/24 04:23:14;;;;;;;;;34.00;29.00;;;;;21.07;81.34;98474.13;7804559;22;96201;-59
2023/05/24 04:26:20;;;;;;;;;33.00;30.00;;;;;21.11;81.48;98486.91;7775360;22;96239;-59
2023/05/24 04:29:25;;;;;;;;;30.00;29.00;;;;;21.11;81.31;98491.63;7775846;22;96408;-60
2023/05/24 04:32:31;;;;;;;;;38.00;32.00;;;;;21.15;80.70;98501.72;7774339;22;96827;-59
2023/05/24 04:35:34;;;;;;;;;31.80;29.60;;;;;21.18;80.74;98503.84;7802327;22;96296;-59
2023/05/24 04:38:38;;;;;;;;;32.20;29.20;;;;;21.16;79.97;98502.50;7803422;22;96399;-60
2023/05/24 04:41:42;;;;;;;;;33.20;30.80;;;;;21.11;79.86;98510.81;7746749;22;99342;-59
2023/05/24 04:44:45;;;;;;;;;34.00;30.00;;;;;21.10;80.25;98517.38;7803376;22;96275;-58
2023/05/24 04:47:50;;;;;;;;;38.00;31.00;;;;;21.08;79.80;98522.34;7801386;22;96236;-58
2023/05/24 04:50:55;;;;;;;;;35.00;31.00;;;;;20.94;79.50;98508.59;7802749;22;96350;-59
2023/05/24 04:53:59;;;;;;;;;40.00;33.00;;;;;21.08;79.54;98520.41;7804223;22;96617;-59
2023/05/24 04:57:02;;;;;;;;;37.75;31.75;;;;;21.11;78.69;98522.56;7804277;22;96196;-59
2023/05/24 05:00:09;;;;;;;;;38.00;31.60;;;;;21.10;78.22;98531.09;7804511;22;96334;-59
2023/05/24 05:03:13;;;;;;;;;33.40;30.40;;;;;21.01;77.54;98535.63;7803286;22;96154;-58
2023/05/24 05:06:17;;;;;;;;;36.20;30.80;;;;;21.01;77.46;98533.69;7776874;22;96265;-58
2023/05/24 05:09:21;;;;;;;;;34.40;30.00;;;;;21.10;76.88;98539.31;7803705;22;96287;-59
2023/05/24 05:12:24;;;;;;;;;39.40;32.00;;;;;21.13;77.47;98546.94;7804155;22;96974;-58
2023/05/24 05:15:28;;;;;;;;;42.00;34.00;;;;;21.13;77.44;98546.94;7804049;22;96203;-59
2023/05/24 05:18:33;;;;;;;;;43.20;34.40;;;;;21.15;77.06;98555.72;7778103;22;96304;-59
2023/05/24 05:21:38;;;;;;;;;41.20;34.20;;;;;21.09;76.90;98559.59;7802921;22;96303;-59
2023/05/24 05:24:42;;;;;;;;;39.60;34.60;;;;;21.17;76.79;98565.25;7806077;22;96161;-59
2023/05/24 05:27:45;;;;;;;;;39.80;32.00;;;;;21.18;76.16;98568.81;7804647;22;96308;-59
2023/05/24 05:30:48;;;;;;;;;41.25;34.25;;;;;21.23;75.54;98557.78;7776747;22;99044;-60
2023/05/24 05:33:53;;;;;;;;;37.00;32.00;;;;;21.26;74.97;98559.13;7750677;22;98774;-60
2023/05/24 05:36:56;;;;;;;;;37.00;30.50;;;;;21.28;74.52;98567.84;7773875;22;96571;-60
2023/05/24 05:40:00;;;;;;;;;33.40;29.20;;;;;21.35;74.03;98568.28;7774372;22;96247;-60
2023/05/24 05:43:04;;;;;;;;;40.00;33.00;;;;;21.42;73.93;98574.19;7746591;22;97457;-60
2023/05/24 05:46:07;;;;;;;;;30.75;28.75;;;;;21.44;73.37;98570.03;7774638;22;96318;-60
2023/05/24 05:49:12;;;;;;;;;31.00;25.25;;;;;21.48;72.59;98576.56;7774812;22;96919;-60
2023/05/24 05:52:15;;;;;;;;;32.40;26.00;;;;;21.58;72.46;98578.31;7775492;22;96336;-60
2023/05/24 05:55:19;;;;;;;;;32.00;28.00;;;;;21.56;72.38;98569.53;7775702;22;96926;-60
2023/05/24 05:58:22;;;;;;;;;27.25;26.00;;;;;21.71;72.47;98582.19;7775854;22;96328;-60
2023/05/24 06:01:26;;;;;;;;;26.25;23.00;;;;;21.71;71.86;98590.41;7774692;22;96828;-60
2023/05/24 06:04:30;;;;;;;;;26.00;24.00;;;;;21.82;71.37;98591.88;7774821;22;96589;-60
2023/05/24 06:07:34;;;;;;;;;31.60;26.60;;;;;21.80;71.54;98596.84;7747754;22;97406;-60
2023/05/24 06:10:37;;;;;;;;;23.40;22.00;;;;;21.84;71.55;98598.69;7747479;22;96749;-60
2023/05/24 06:13:41;;;;;;;;;26.40;25.20;;;;;21.81;70.83;98606.69;7775680;22;96779;-60
2023/05/24 06:16:44;;;;;;;;;26.60;24.60;;;;;21.82;71.29;98598.19;7774108;22;96352;-60
2023/05/24 06:19:50;;;;;;;;;23.00;21.60;;;;;21.84;70.85;98603.38;7744316;22;98200;-59
2023/05/24 06:22:54;;;;;;;;;25.00;24.00;;;;;21.87;70.51;98605.50;7774540;22;96257;-60
2023/05/24 06:25:57;;;;;;;;;26.00;23.40;;;;;21.88;69.94;98610.69;7774514;22;96932;-60
2023/05/24 06:29:01;;;;;;;;;27.75;25.00;;;;;21.96;70.22;98617.44;7774354;22;96388;-60
2023/05/24 06:32:05;;;;;;;;;22.60;20.80;;;;;21.97;71.03;98619.91;7775336;22;96231;-60
2023/05/24 06:35:10;;;;;;;;;23.40;20.40;;;;;21.99;70.87;98625.09;7746974;22;96770;-60
2023/05/24 06:38:14;;;;;;;;;28.00;24.00;;;;;21.94;69.38;98628.72;7776025;22;96294;-60
2023/05/24 06:41:17;;;;;;;;;25.00;23.00;;;;;21.99;70.87;98636.84;7720885;22;97570;-60
2023/05/24 06:44:22;;;;;;;;;25.60;24.00;;;;;21.99;70.25;98636.84;7775372;22;96508;-60
2023/05/24 06:47:27;;;;;;;;;26.00;23.00;;;;;21.97;70.12;98643.78;7720069;22;96612;-60
2023/05/24 06:50:32;;;;;;;;;24.00;22.00;;;;;21.92;69.74;98647.41;7776182;22;96363;-60
2023/05/24 06:53:35;;;;;;;;;20.00;20.00;;;;;21.99;69.69;98644.31;7775144;22;96432;-60
2023/05/24 06:56:39;;;;;;;;;27.25;24.25;;;;;21.94;69.40;98650.66;7776202;22;96317;-59
2023/05/24 06:59:42;;;;;;;;;25.60;24.60;;;;;21.87;69.97;98655.72;7773999;22;96239;-60
2023/05/24 07:02:45;;;;;;;;;26.00;24.00;;;;;21.84;70.43;98659.06;7774897;22;97152;-60
2023/05/24 07:05:50;;;;;;;;;30.60;27.00;;;;;21.82;71.22;98653.06;7775634;22;96352;-60
2023/05/24 07:08:53;;;;;;;;;24.20;22.60;;;;;21.85;72.05;98657.94;7775777;22;96332;-60
2023/05/24 07:11:57;;;;;;;;;28.00;25.20;;;;;21.83;72.92;98668.41;7775801;22;96898;-60
2023/05/24 07:15:00;;;;;;;;;26.60;22.00;;;;;21.78;71.80;98667.69;7745797;22;98918;-60
2023/05/24 07:18:04;;;;;;;;;27.00;26.00;;;;;21.81;71.83;98669.81;7748236;22;96730;-60
2023/05/24 07:21:09;;;;;;;;;26.20;23.20;;;;;21.85;72.24;98673.59;7792580;22;96514;-60
2023/05/24 07:24:12;;;;;;;;;27.75;26.75;;;;;21.82;72.24;98676.94;7814881;22;96300;-60
2023/05/24 07:27:18;;;;;;;;;33.25;29.25;;;;;21.82;73.61;98675.00;7815616;22;96189;-60
2023/05/24 07:30:22;;;;;;;;;33.40;30.00;;;;;21.90;73.52;98684.47;7786838;22;96289;-60
2023/05/24 07:33:36;;;;;;;;;31.60;28.80;;;;;21.98;72.70;98687.41;7814200;22;96360;-59
2023/05/24 07:36:41;;;;;;;;;30.80;29.80;;;;;22.01;72.42;98689.53;7814840;22;96527;-60
2023/05/24 07:39:44;;;;;;;;;33.00;30.00;;;;;22.00;72.04;98695.31;7785668;22;96624;-60
2023/05/24 07:42:47;;;;;;;;;28.00;27.00;;;;;22.05;72.38;98700.72;7814553;22;96264;-59
2023/05/24 07:45:51;;;;;;;;;33.00;29.40;;;;;22.08;71.88;98699.31;7785004;22;96585;-59
2023/05/24 07:48:55;;;;;;;;;35.60;30.00;;;;;22.11;72.61;98705.03;7787162;22;96348;-59
2023/05/24 07:51:59;;;;;;;;;32.80;29.40;;;;;22.15;72.29;98705.22;7786839;22;96393;-59
2023/05/24 07:55:03;;;;;;;;;33.00;30.00;;;;;22.13;71.74;98712.97;7814952;22;96859;-59
2023/05/24 07:58:06;;;;;;;;;29.00;25.00;;;;;21.98;71.89;98711.28;7814846;22;96935;-59
2023/05/24 08:01:10;;;;;;;;;25.80;23.20;;;;;21.82;71.70;98721.66;7812148;22;98687;-60
2023/05/24 08:04:13;;;;;;;;;30.00;24.75;;;;;21.60;73.39;98715.97;7814005;22;96170;-60
2023/05/24 08:07:18;;;;;;;;;27.80;25.80;;;;;21.44;73.60;98725.56;7773002;22;97119;-59
2023/05/24 08:10:22;;;;;;;;;31.75;27.50;;;;;21.34;72.36;98731.19;7845508;22;96393;-59
2023/05/24 08:13:25;;;;;;;;;29.00;27.00;;;;;21.31;72.91;98731.75;7846622;22;96294;-59
2023/05/24 08:16:29;;;;;;;;;31.50;27.00;;;;;21.16;72.73;98738.25;7847641;22;96216;-59
2023/05/24 08:19:34;;;;;;;;;29.80;26.20;;;;;20.95;73.30;98745.09;7838712;22;96208;-59
2023/05/24 08:22:39;;;;;;;;;28.20;27.00;;;;;20.87;73.60;98746.53;7808733;22;96214;-59
2023/05/24 08:25:43;;;;;;;;;28.00;24.80;;;;;20.73;73.86;98740.94;7808981;22;96228;-59
2023/05/24 08:28:47;;;;;;;;;26.00;23.60;;;;;20.48;74.69;98746.69;7809198;22;96523;-60
2023/05/24 08:31:51;;;;;;;;;30.00;26.00;;;;;20.46;75.52;98754.41;7807292;22;96312;-60
2023/05/24 08:34:55;;;;;;;;;25.80;21.00;;;;;20.37;75.68;98756.13;7781341;22;96898;-59
2023/05/24 08:38:10;;;;;;;;;22.00;20.00;;;;;20.42;75.19;98760.75;7807625;22;96213;-59
2023/05/24 08:41:13;;;;;;;;;18.40;17.40;;;;;20.38;74.87;98768.69;7805199;22;96239;-59
2023/05/24 08:44:17;;;;;;;;;20.00;18.00;;;;;20.33;75.00;98768.75;7805870;22;96222;-59
2023/05/24 08:47:21;;;;;;;;;18.40;17.00;;;;;20.24;76.54;98771.25;7779556;22;98272;-59
2023/05/24 08:50:25;;;;;;;;;20.00;19.00;;;;;20.28;75.99;98768.78;7808567;22;96258;-59
2023/05/24 08:53:32;;;;;;;;;17.00;15.00;;;;;20.32;76.69;98778.09;7809208;22;96317;-59
2023/05/24 08:56:36;;;;;;;;;17.25;15.25;;;;;20.18;76.69;98783.34;7810344;22;96214;-59
2023/05/24 08:59:41;;;;;;;;;16.20;14.00;;;;;20.06;76.84;98790.31;7807440;22;96303;-59
2023/05/24 09:02:46;;;;;;;;;13.00;11.20;;;;;19.96;76.88;98802.16;7809068;22;96552;-59
2023/05/24 09:05:50;;;;;;;;;17.00;15.00;;;;;19.97;76.97;98792.84;7807460;22;96952;-59
2023/05/24 09:08:56;;;;;;;;;13.00;10.80;;;;;20.00;77.03;98803.22;7779756;22;96556;-59
2023/05/24 09:12:04;;;;;;;;;14.25;13.00;;;;;20.03;76.65;98799.91;7780209;22;97072;-59
2023/05/24 09:15:08;;;;;;;;;15.00;12.60;;;;;20.06;76.46;98814.94;7805824;22;96853;-59
2023/05/24 09:18:12;;;;;;;;;12.40;11.00;;;;;19.98;76.60;98805.44;7805345;22;96148;-58
2023/05/24 09:21:16;;;;;;;;;11.25;10.25;;;;;19.93;76.22;98815.59;7807663;22;96205;-59
2023/05/24 09:24:23;;;;;;;;;12.60;12.00;;;;;19.89;76.67;98820.78;7780874;22;96720;-59
2023/05/24 09:27:27;;;;;;;;;18.50;15.50;;;;;19.65;76.75;98811.63;7808359;22;96162;-59
2023/05/24 09:30:30;;;;;;;;;15.00;14.00;;;;;19.67;76.06;98839.53;7806254;22;96044;-59
2023/05/24 09:33:35;;;;;;;;;16.40;14.80;;;;;19.54;76.35;98835.50;7808749;22;96285;-59
2023/05/24 09:36:41;;;;;;;;;21.40;15.00;;;;;19.31;77.03;98845.13;7808357;22;96246;-59
2023/05/24 09:39:47;;;;;;;;;15.60;15.00;;;;;19.26;77.43;98855.25;7807931;22;96148;-59
2023/05/24 09:43:03;;;;;;;;;17.00;13.00;;;;;18.99;78.57;98852.91;7808198;22;96144;-59
2023/05/24 09:46:06;;;;;;;;;17.00;15.00;;;;;18.87;79.70;98855.09;7807853;22;96684;-59
2023/05/24 09:49:09;;;;;;;;;17.50;16.50;;;;;18.89;79.61;98855.66;7781414;22;96206;-59
2023/05/24 09:52:14;;;;;;;;;20.75;17.00;;;;;18.87;80.38;98855.91;7807793;22;96149;-59
2023/05/24 09:55:20;;;;;;;;;19.00;16.00;;;;;18.87;80.05;98858.66;7808158;22;96187;-59
2023/05/24 09:58:28;;;;;;;;;18.60;15.00;;;;;18.91;79.75;98857.00;7807366;22;96780;-59
2023/05/24 10:01:33;;;;;;;;;21.00;17.00;;;;;18.87;80.50;98864.13;7778333;22;96582;-59
2023/05/24 10:04:37;;;;;;;;;18.00;15.00;;;;;18.77;80.19;98866.03;7805138;22;96224;-59
2023/05/24 10:07:41;;;;;;;;;19.00;17.00;;;;;18.82;79.60;98874.22;7805298;22;96146;-59
2023/05/24 10:10:46;;;;;;;;;22.40;18.00;;;;;18.82;80.57;98882.41;7804865;22;96242;-59
2023/05/24 10:13:49;;;;;;;;;21.00;17.00;;;;;18.72;80.67;98883.25;7778173;22;96341;-59
2023/05/24 10:16:53;;;;;;;;;19.75;19.00;;;;;18.77;80.52;98885.97;7777536;22;96167;-59
2023/05/24 10:19:57;;;;;;;;;16.80;15.00;;;;;18.57;80.64;98889.53;7777859;22;97456;-59
2023/05/24 10:23:03;;;;;;;;;18.00;15.60;;;;;18.51;81.02;98887.06;7806681;22;96413;-59
2023/05/24 10:26:10;;;;;;;;;17.00;15.00;;;;;18.49;81.26;98889.25;7777613;22;96989;-59
2023/05/24 10:29:27;;;;;;;;;17.40;14.40;;;;;18.51;80.80;98887.91;7777477;22;98639;-59
2023/05/24 10:32:35;;;;;;;;;18.20;15.20;;;;;18.49;80.19;98900.16;7805754;22;96257;-59
2023/05/24 10:35:40;;;;;;;;;15.80;12.00;;;;;18.45;79.68;98894.44;7807024;22;96311;-60
2023/05/24 10:38:46;;;;;;;;;16.00;13.75;;;;;18.56;79.18;98885.19;7806281;22;96210;-59
2023/05/24 10:41:51;;;;;;;;;18.00;15.00;;;;;18.55;80.11;98890.91;7804872;22;96723;-59
2023/05/24 10:44:56;;;;;;;;;17.00;15.00;;;;;18.58;80.26;98899.38;7752056;22;98517;-59
2023/05/24 10:48:02;;;;;;;;;20.00;18.67;;;;;18.76;79.33;98902.66;7804671;22;97003;-59
2023/05/24 10:51:32;;;;;;;;;21.25;17.25;;;;;18.99;78.04;98900.16;7778486;22;96669;-59
2023/05/24 10:54:37;;;;;;;;;19.00;18.00;;;;;19.15;77.98;98905.59;7793056;22;97782;-59
2023/05/24 10:57:51;;;;;;;;;22.40;19.80;;;;;19.20;77.38;98905.59;7775751;22;97476;-59
2023/05/24 11:00:55;;;;;;;;;22.60;21.60;;;;;19.21;76.27;98904.47;7748498;22;96189;-59
2023/05/24 11:04:08;;;;;;;;;23.33;20.00;;;;;19.28;75.44;98911.31;7775589;22;96381;-59
2023/05/24 11:07:14;;;;;;;;;22.00;19.00;;;;;19.24;75.42;98912.97;7775703;22;96620;-59
2023/05/24 11:10:30;;;;;;;;;24.80;20.80;;;;;19.30;75.14;98911.81;7775396;22;96453;-60
2023/05/24 11:13:37;;;;;;;;;20.75;17.00;;;;;19.48;74.89;98918.66;7774520;22;97419;-59
2023/05/24 11:16:40;;;;;;;;;19.80;17.40;;;;;19.54;74.02;98927.66;7746909;22;96581;-59
2023/05/24 11:19:50;;;;;;;;;21.00;20.00;;;;;19.64;72.56;98916.69;7774914;22;96554;-59
2023/05/24 11:22:54;;;;;;;;;19.40;18.00;;;;;19.78;71.71;98924.00;7775880;22;96269;-59
2023/05/24 11:25:58;;;;;;;;;20.80;20.00;;;;;19.75;70.66;98924.56;7775244;22;96366;-59
2023/05/24 11:29:04;;;;;;;;;24.00;22.00;;;;;19.77;69.75;98927.84;7775499;22;96762;-59
2023/05/24 11:32:08;;;;;;;;;20.00;20.00;;;;;19.74;69.77;98927.59;7775356;22;96159;-60
2023/05/24 11:35:13;;;;;;;;;21.00;19.60;;;;;19.54;70.03;98933.97;7775458;22;97798;-59
2023/05/24 11:38:17;;;;;;;;;22.75;18.25;;;;;19.50;69.42;98927.38;7775110;22;96195;-59
2023/05/24 11:41:20;;;;;;;;;20.00;18.00;;;;;19.37;69.56;98928.78;7747345;22;98748;-59
2023/05/24 11:44:27;;;;;;;;;21.00;19.00;;;;;19.25;69.65;98921.97;7775176;22;96961;-59
2023/05/24 11:47:35;;;;;;;;;25.00;20.60;;;;;19.29;69.46;98931.25;7775147;22;96205;-59
2023/05/24 11:50:39;;;;;;;;;18.00;16.80;;;;;19.36;69.55;98924.41;7775854;22;96888;-59
2023/05/24 11:53:52;;;;;;;;;26.00;24.60;;;;;19.40;69.63;98925.47;7775710;22;96807;-59
2023/05/24 11:56:57;;;;;;;;;19.40;18.40;;;;;19.52;69.72;98935.31;7772775;22;98028;-59
2023/05/24 12:00:04;;;;;;;;;21.40;20.00;;;;;19.65;69.98;98940.19;7775564;22;97061;-60
2023/05/24 12:03:09;;;;;;;;;19.00;18.40;;;;;19.82;68.97;98941.50;7747764;22;96336;-59
2023/05/24 12:06:13;;;;;;;;;26.67;23.00;;;;;19.86;68.69;98937.09;7774967;22;96413;-59
2023/05/24 12:09:17;;;;;;;;;21.60;19.00;;;;;19.80;68.17;98935.47;7747071;22;96820;-60
2023/05/24 12:12:21;;;;;;;;;20.20;19.00;;;;;19.89;67.66;98938.44;7774523;22;96368;-60
2023/05/24 12:15:37;;;;;;;;;22.00;20.25;;;;;20.03;68.27;98935.94;7775394;22;96204;-59
2023/05/24 12:18:41;;;;;;;;;18.00;17.00;;;;;20.12;67.14;98939.72;7775418;22;96859;-59
2023/05/24 12:22:04;;;;;;;;;20.25;18.25;;;;;20.14;66.38;98945.69;7775334;22;96404;-59
2023/05/24 12:25:09;;;;;;;;;21.00;20.00;;;;;20.13;66.16;98946.81;7774219;22;96327;-59
2023/05/24 12:28:12;;;;;;;;;20.20;18.00;;;;;20.07;65.49;98939.75;7746168;22;96212;-59
2023/05/24 12:31:17;;;;;;;;;20.50;20.00;;;;;20.06;65.31;98924.41;7774108;22;96198;-59
2023/05/24 12:34:21;;;;;;;;;21.00;19.20;;;;;20.25;64.88;98939.06;7774692;22;97445;-59
2023/05/24 12:37:24;;;;;;;;;20.00;17.00;;;;;20.30;64.99;98933.56;7774350;22;96527;-59
2023/05/24 12:40:28;;;;;;;;;26.00;21.00;;;;;20.26;63.93;98941.53;7771467;22;96245;-59
2023/05/24 12:43:32;;;;;;;;;17.00;16.75;;;;;20.31;63.63;98938.78;7773926;22;96768;-59
2023/05/24 12:46:36;;;;;;;;;20.80;20.00;;;;;20.22;63.92;98945.13;7773354;22;97095;-59
2023/05/24 12:49:42;;;;;;;;;21.60;20.00;;;;;20.18;64.55;98939.38;7745435;22;97184;-59
2023/05/24 12:52:46;;;;;;;;;19.50;17.75;;;;;20.24;64.62;98931.97;7746681;22;96468;-59
2023/05/24 12:55:54;;;;;;;;;21.60;20.40;;;;;20.21;63.74;98940.75;7773980;22;96582;-59
2023/05/24 12:58:58;;;;;;;;;22.00;20.40;;;;;19.95;64.66;98920.09;7774895;22;96256;-59
2023/05/24 13:02:03;;;;;;;;;21.20;19.20;;;;;20.08;64.68;98935.91;7774003;22;97126;-59
2023/05/24 13:05:09;;;;;;;;;18.60;18.60;;;;;20.02;64.58;98937.03;7774776;22;96191;-59
2023/05/24 13:08:13;;;;;;;;;21.80;19.80;;;;;20.04;63.79;98943.00;7774623;22;96536;-59
2023/05/24 13:11:16;;;;;;;;;24.00;22.00;;;;;20.14;63.52;98932.00;7774118;22;96339;-60
2023/05/24 13:14:20;;;;;;;;;25.00;22.00;;;;;20.23;62.80;98928.41;7774242;22;96224;-59
2023/05/24 13:17:25;;;;;;;;;22.25;20.25;;;;;20.29;62.81;98931.91;7774456;22;97519;-59
2023/05/24 13:20:28;;;;;;;;;24.20;21.60;;;;;20.37;62.42;98936.03;7773637;22;97202;-59
2023/05/24 13:23:33;;;;;;;;;20.00;18.75;;;;;20.46;61.93;98935.13;7774248;22;96865;-59
2023/05/24 13:26:37;;;;;;;;;23.60;20.60;;;;;20.61;61.41;98937.78;7773567;22;96454;-59
2023/05/24 13:29:41;;;;;;;;;22.60;20.00;;;;;20.55;61.19;98946.31;7774452;22;96214;-59
2023/05/24 13:33:04;;;;;;;;;20.60;18.20;;;;;20.57;61.55;98936.72;7745794;22;96665;-59
2023/05/24 13:36:08;;;;;;;;;21.00;19.00;;;;;20.50;61.48;98943.59;7774597;22;96720;-59
2023/05/24 13:39:12;;;;;;;;;20.00;18.00;;;;;20.52;60.89;98938.66;7775225;22;97052;-60
2023/05/24 13:42:18;;;;;;;;;21.00;19.00;;;;;20.54;61.35;98944.66;7776201;22;96682;-60
2023/05/24 13:45:22;;;;;;;;;23.75;21.00;;;;;20.37;61.19;98939.59;7747267;22;98454;-60
2023/05/24 13:48:26;;;;;;;;;22.00;20.20;;;;;20.36;61.36;98943.41;7748770;22;96309;-59
2023/05/24 13:51:30;;;;;;;;;21.75;19.25;;;;;20.38;61.80;98938.47;7776160;22;96324;-59
2023/05/24 13:54:33;;;;;;;;;22.80;21.20;;;;;20.50;60.92;98951.81;7748704;22;97094;-60
2023/05/24 13:57:37;;;;;;;;;25.00;22.00;;;;;20.65;60.98;98944.31;7748958;22;96323;-60
2023/05/24 14:00:55;;;;;;;;;21.20;20.00;;;;;20.66;60.10;98937.72;7776015;22;96258;-59
2023/05/24 14:04:01;;;;;;;;;20.00;19.00;;;;;20.65;60.35;98943.47;7747193;22;97411;-59
2023/05/24 14:07:06;;;;;;;;;21.00;19.40;;;;;20.64;60.62;98942.66;7775656;22;96294;-59
2023/05/24 14:10:11;;;;;;;;;20.60;20.00;;;;;20.64;60.40;98945.41;7746867;22;99700;-60